Time;durP1;ratioP1;P1;durP2;ratioP2;P2;SDS_P1;SDS_P2;PMS_P1;PMS_P2;Temp;Humidity;BMP_temperature;BMP_pressure;BME280_temperature;BME280_humidity;BME280_pressure;Samples;Min_cycle;Max_cycle;Signal;HPM_P1;HPM_P2
2022/06/23 00:01:43;;;;;;;2.78;2.40;;;20.80;99.90;;;;;;4992291;28;20283;-55
2022/06/23 00:04:14;;;;;;;5.35;2.60;;;20.80;99.90;;;;;;4992395;28;20613;-56
2022/06/23 00:07:00;;;;;;;7.07;2.45;;;20.70;99.90;;;;;;4992236;28;20157;-55
2022/06/23 00:09:41;;;;;;;6.72;2.38;;;20.60;99.90;;;;;;4992563;28;20180;-55
2022/06/23 00:12:15;;;;;;;6.13;2.40;;;20.60;99.90;;;;;;4992291;28;20169;-56
2022/06/23 00:14:41;;;;;;;3.42;2.65;;;20.60;99.90;;;;;;4992209;28;20161;-55
2022/06/23 00:17:32;;;;;;;5.65;2.60;;;20.50;99.90;;;;;;4992418;28;20165;-55
2022/06/23 00:20:09;;;;;;;3.13;2.42;;;20.50;99.90;;;;;;4992207;28;20211;-55
2022/06/23 00:22:37;;;;;;;4.88;2.72;;;20.50;99.90;;;;;;4992178;28;20192;-55
2022/06/23 00:25:05;;;;;;;4.22;2.40;;;20.50;99.90;;;;;;4992142;28;20196;-55
2022/06/23 00:27:36;;;;;;;4.07;2.17;;;20.50;99.90;;;;;;4992050;28;20200;-56
2022/06/23 00:30:34;;;;;;;5.32;2.90;;;20.40;99.90;;;;;;4993861;28;20263;-54
2022/06/23 00:33:06;;;;;;;5.68;2.60;;;20.30;99.90;;;;;;4995721;28;20168;-54
2022/06/23 00:35:32;;;;;;;6.38;2.65;;;20.30;99.90;;;;;;4995853;28;20263;-54
2022/06/23 00:37:58;;;;;;;3.33;2.47;;;20.40;99.90;;;;;;4995762;28;20685;-54
2022/06/23 00:40:24;;;;;;;2.85;2.55;;;20.50;99.90;;;;;;4995887;28;20177;-54
2022/06/23 00:42:58;;;;;;;5.30;2.67;;;20.40;99.90;;;;;;4995553;28;20172;-54
2022/06/23 00:45:40;;;;;;;3.10;2.30;;;20.50;99.90;;;;;;4995836;28;20248;-55
2022/06/23 00:48:08;;;;;;;4.93;2.78;;;20.40;99.90;;;;;;4995349;28;20697;-54
2022/06/23 00:51:04;;;;;;;3.92;2.63;;;20.40;99.90;;;;;;4995357;28;20247;-54
2022/06/23 00:53:43;;;;;;;4.75;2.90;;;20.40;99.90;;;;;;4995299;28;20200;-55
2022/06/23 00:56:26;;;;;;;4.50;2.60;;;20.40;99.90;;;;;;4977694;28;20171;-54
2022/06/23 00:58:55;;;;;;;3.00;2.45;;;20.30;99.90;;;;;;4995561;28;20165;-54
2022/06/23 01:01:43;;;;;;;3.92;2.85;;;20.20;99.90;;;;;;4995158;28;20189;-55
2022/06/23 01:04:47;;;;;;;4.60;2.67;;;20.00;99.90;;;;;;4978601;28;20176;-55
2022/06/23 01:07:57;;;;;;;6.93;2.88;;;20.00;99.90;;;;;;4995022;28;20196;-54
2022/06/23 01:10:40;;;;;;;7.15;3.00;;;19.90;99.90;;;;;;4972646;28;20211;-54
2022/06/23 01:13:24;;;;;;;3.40;2.72;;;19.90;99.90;;;;;;4994945;28;20167;-55
2022/06/23 01:15:58;;;;;;;5.60;3.58;;;19.90;99.90;;;;;;4994949;28;20255;-55
2022/06/23 01:18:32;;;;;;;4.47;3.45;;;19.90;99.90;;;;;;4995240;28;20164;-55
2022/06/23 01:21:03;;;;;;;7.05;3.63;;;19.80;99.90;;;;;;4994787;28;20256;-55
2022/06/23 01:23:41;;;;;;;4.97;2.95;;;19.70;99.90;;;;;;4994853;28;20171;-55
2022/06/23 01:26:38;;;;;;;6.47;3.17;;;19.70;99.90;;;;;;4994802;28;20169;-55
2022/06/23 01:29:38;;;;;;;5.40;3.10;;;19.80;99.90;;;;;;4994643;28;20303;-55
2022/06/23 01:32:23;;;;;;;7.22;3.28;;;19.70;99.90;;;;;;4994655;28;20191;-54
2022/06/23 01:35:07;;;;;;;6.75;3.22;;;19.70;99.90;;;;;;4994607;28;20175;-54
2022/06/23 01:37:52;;;;;;;4.53;3.47;;;19.70;99.90;;;;;;4994601;28;20200;-55
2022/06/23 01:40:43;;;;;;;4.63;3.40;;;19.70;99.90;;;;;;4994448;28;20629;-55
2022/06/23 01:43:20;;;;;;;7.18;2.83;;;19.70;99.90;;;;;;4994688;28;20175;-55
2022/06/23 01:46:06;;;;;;;5.43;3.10;;;19.70;99.90;;;;;;4994427;28;20665;-55
2022/06/23 01:48:52;;;;;;;6.45;3.08;;;19.50;99.90;;;;;;4994361;28;20208;-55
2022/06/23 01:51:27;;;;;;;3.70;3.35;;;19.50;99.90;;;;;;4994197;28;20748;-54
2022/06/23 01:54:15;;;;;;;5.03;3.00;;;19.50;99.90;;;;;;4994774;28;20167;-55
2022/06/23 01:57:14;;;;;;;4.03;3.20;;;19.60;99.90;;;;;;4994549;28;20252;-55
2022/06/23 01:59:47;;;;;;;3.70;2.88;;;19.50;99.90;;;;;;4990241;28;20208;-54
2022/06/23 02:02:27;;;;;;;4.97;3.40;;;19.60;99.90;;;;;;4994199;28;20190;-55
2022/06/23 02:05:23;;;;;;;4.60;3.22;;;19.50;99.90;;;;;;4994539;28;20161;-55
2022/06/23 02:07:55;;;;;;;4.03;3.05;;;19.50;99.90;;;;;;4993931;28;20200;-55
2022/06/23 02:10:32;;;;;;;5.60;3.10;;;19.50;99.90;;;;;;4993862;28;20165;-55
2022/06/23 02:13:11;;;;;;;8.35;3.38;;;19.50;99.90;;;;;;4994281;28;20195;-54
2022/06/23 02:15:55;;;;;;;4.05;3.28;;;19.40;99.90;;;;;;4993800;28;20653;-55
2022/06/23 02:18:44;;;;;;;4.97;3.20;;;19.40;99.90;;;;;;4994233;28;20255;-55
2022/06/23 02:21:12;;;;;;;5.30;2.83;;;19.40;99.90;;;;;;4979128;28;20197;-55
2022/06/23 02:23:44;;;;;;;5.35;2.78;;;19.40;99.90;;;;;;4993602;28;20168;-55
2022/06/23 02:26:10;;;;;;;3.55;2.83;;;19.30;99.90;;;;;;4976244;28;20168;-55
2022/06/23 02:29:02;;;;;;;4.05;3.03;;;19.30;99.90;;;;;;4993615;28;20204;-55
2022/06/23 02:31:45;;;;;;;5.07;2.78;;;19.40;99.90;;;;;;4975502;28;20223;-54
2022/06/23 02:34:18;;;;;;;3.85;2.92;;;19.40;99.90;;;;;;4993486;28;20187;-55
2022/06/23 02:37:02;;;;;;;8.57;3.42;;;19.40;99.90;;;;;;4993453;28;20171;-55
2022/06/23 02:39:48;;;;;;;5.30;3.42;;;19.30;99.90;;;;;;4993387;28;20161;-54
2022/06/23 02:42:32;;;;;;;5.65;3.45;;;19.30;99.90;;;;;;4993313;28;20200;-55
2022/06/23 02:45:40;;;;;;;4.20;2.72;;;19.30;99.90;;;;;;4975705;28;20176;-54
2022/06/23 02:48:32;;;;;;;3.70;2.88;;;19.40;99.90;;;;;;4992872;28;20213;-55
2022/06/23 02:51:07;;;;;;;5.72;2.58;;;19.40;99.90;;;;;;4993031;28;20216;-55
2022/06/23 02:53:53;;;;;;;6.70;2.97;;;19.40;99.90;;;;;;4992719;28;20164;-55
2022/06/23 02:56:35;;;;;;;6.32;2.72;;;19.40;99.90;;;;;;4993091;28;20533;-55
2022/06/23 02:59:11;;;;;;;5.00;2.65;;;19.50;99.90;;;;;;4975629;28;20307;-55
2022/06/23 03:02:09;;;;;;;5.10;3.50;;;19.50;99.90;;;;;;4993115;28;20255;-55
2022/06/23 03:04:47;;;;;;;7.82;3.63;;;19.40;99.90;;;;;;4941219;28;20196;-54
2022/06/23 03:07:32;;;;;;;8.65;3.58;;;19.40;99.90;;;;;;4992881;28;20199;-55
2022/06/23 03:10:06;;;;;;;10.70;3.75;;;19.40;99.90;;;;;;4992893;28;20267;-54
2022/06/23 03:12:47;;;;;;;5.28;3.40;;;19.30;99.90;;;;;;4992817;28;20179;-54
2022/06/23 03:15:30;;;;;;;9.00;4.07;;;19.30;99.90;;;;;;4992788;28;20168;-54
2022/06/23 03:18:08;;;;;;;7.13;3.95;;;19.30;99.90;;;;;;4976361;28;20164;-54
2022/06/23 03:20:53;;;;;;;6.57;3.80;;;19.30;99.90;;;;;;4992726;28;20676;-54
2022/06/23 03:23:35;;;;;;;8.05;3.67;;;19.40;99.90;;;;;;4992781;28;20248;-54
2022/06/23 03:26:24;;;;;;;5.63;3.83;;;19.50;99.90;;;;;;4992632;28;20630;-54
2022/06/23 03:29:04;;;;;;;7.28;3.95;;;19.50;99.90;;;;;;4992494;28;20244;-54
2022/06/23 03:31:50;;;;;;;10.25;4.10;;;19.50;99.90;;;;;;4992596;28;20160;-54
2022/06/23 03:34:24;;;;;;;10.82;4.25;;;19.50;99.90;;;;;;4992519;28;20179;-54
2022/06/23 03:37:00;;;;;;;9.13;3.70;;;19.60;99.90;;;;;;4992588;28;20175;-54
2022/06/23 03:42:37;;;;;;;4.78;2.92;;;19.60;99.90;;;;;;4992443;28;20207;-54
2022/06/23 03:45:32;;;;;;;3.85;2.83;;;19.60;99.90;;;;;;4992447;28;20215;-54
2022/06/23 03:48:04;;;;;;;4.32;3.00;;;19.60;99.90;;;;;;4992433;28;20214;-55
2022/06/23 03:50:47;;;;;;;7.00;3.20;;;19.70;99.90;;;;;;4974777;28;20718;-55
2022/06/23 03:53:24;;;;;;;5.15;3.35;;;19.70;99.90;;;;;;4992431;28;20172;-55
2022/06/23 03:56:04;;;;;;;8.25;3.22;;;19.70;99.90;;;;;;4992407;28;20172;-54
2022/06/23 03:58:29;;;;;;;6.18;3.42;;;19.70;99.90;;;;;;4992221;28;20642;-54
2022/06/23 04:00:58;;;;;;;5.55;3.10;;;19.80;99.90;;;;;;4992748;28;20165;-54
2022/06/23 04:03:30;;;;;;;3.30;2.85;;;19.80;99.90;;;;;;4992693;28;20179;-54
2022/06/23 04:05:55;;;;;;;8.20;3.85;;;19.70;99.90;;;;;;4995470;28;20646;-55
2022/06/23 04:08:27;;;;;;;4.90;2.90;;;19.80;99.90;;;;;;4996452;28;20299;-54
2022/06/23 04:10:58;;;;;;;4.97;2.55;;;19.80;99.90;;;;;;4996340;28;20172;-55
2022/06/23 04:13:36;;;;;;;5.25;3.00;;;19.80;99.90;;;;;;4996655;28;20184;-54
2022/06/23 04:16:10;;;;;;;4.35;3.00;;;19.90;99.90;;;;;;4996133;28;20172;-55
2022/06/23 04:18:44;;;;;;;7.15;3.63;;;20.00;99.90;;;;;;4995587;28;20169;-55
2022/06/23 04:21:19;;;;;;;8.20;4.40;;;20.00;99.90;;;;;;4996095;28;20173;-55
2022/06/23 04:23:52;;;;;;;6.57;2.83;;;20.00;99.90;;;;;;4996134;28;20200;-55
2022/06/23 04:26:21;;;;;;;8.10;2.80;;;20.00;99.90;;;;;;4996059;28;20176;-55
2022/06/23 04:28:57;;;;;;;6.13;2.83;;;20.00;99.90;;;;;;4995773;28;20204;-54
2022/06/23 04:31:46;;;;;;;4.85;2.42;;;20.00;99.90;;;;;;4995980;28;20251;-55
2022/06/23 04:34:24;;;;;;;7.60;2.60;;;20.00;99.90;;;;;;4995752;28;20693;-55
2022/06/23 04:36:51;;;;;;;5.32;2.40;;;20.30;99.90;;;;;;4995687;28;20199;-55
2022/06/23 04:39:37;;;;;;;6.72;2.58;;;20.40;99.90;;;;;;4995848;28;20181;-55
2022/06/23 04:42:23;;;;;;;12.02;3.15;;;20.50;99.90;;;;;;4995582;28;20654;-55
2022/06/23 04:44:53;;;;;;;3.88;2.55;;;20.60;99.90;;;;;;4995487;28;20505;-55
2022/06/23 04:47:23;;;;;;;7.47;2.92;;;20.80;99.90;;;;;;4977820;28;20263;-54
2022/06/23 04:49:56;;;;;;;5.60;2.67;;;20.80;99.90;;;;;;4995434;28;20570;-55
2022/06/23 04:52:44;;;;;;;5.80;2.55;;;20.80;99.90;;;;;;4995588;28;20168;-55
2022/06/23 04:55:20;;;;;;;5.43;2.60;;;20.80;99.90;;;;;;4995278;28;20169;-54
2022/06/23 04:58:10;;;;;;;4.03;2.85;;;20.90;99.90;;;;;;4995268;28;20160;-55
2022/06/23 05:00:49;;;;;;;5.85;2.42;;;21.00;99.90;;;;;;4995158;28;20224;-54
2022/06/23 05:03:15;;;;;;;3.15;2.30;;;21.10;99.90;;;;;;4995138;28;20219;-54
2022/06/23 05:05:41;;;;;;;4.28;2.30;;;21.30;99.90;;;;;;4995174;28;20638;-55
2022/06/23 05:08:24;;;;;;;6.15;2.65;;;21.40;99.90;;;;;;4994938;28;20618;-55
2022/06/23 05:11:13;;;;;;;5.57;2.33;;;21.50;99.90;;;;;;4995613;28;20168;-54
2022/06/23 05:13:55;;;;;;;7.97;3.00;;;21.50;99.90;;;;;;4994984;28;20176;-55
2022/06/23 05:16:28;;;;;;;5.65;2.63;;;21.60;99.90;;;;;;4994828;28;20625;-55
2022/06/23 05:18:57;;;;;;;6.47;2.78;;;23.00;99.90;;;;;;4995326;28;20168;-54
2022/06/23 05:21:27;;;;;;;7.38;2.75;;;21.70;99.90;;;;;;4995384;28;20185;-55
2022/06/23 05:24:01;;;;;;;6.75;2.40;;;21.70;99.90;;;;;;4995177;28;20165;-55
2022/06/23 05:26:36;;;;;;;3.80;2.42;;;21.80;99.90;;;;;;4994811;28;20184;-55
2022/06/23 05:29:06;;;;;;;3.63;2.38;;;21.80;99.90;;;;;;4994572;28;20214;-55
2022/06/23 05:31:35;;;;;;;3.63;2.45;;;21.90;99.90;;;;;;4994659;28;20227;-55
2022/06/23 05:34:08;;;;;;;4.38;2.60;;;22.00;99.90;;;;;;4995013;28;20529;-55
2022/06/23 05:36:47;;;;;;;6.30;2.53;;;22.00;99.90;;;;;;4994543;28;20169;-55
2022/06/23 05:39:21;;;;;;;5.53;2.53;;;22.00;99.90;;;;;;4994614;28;20173;-55
2022/06/23 05:41:52;;;;;;;3.97;2.40;;;21.90;99.90;;;;;;4994427;28;20173;-55
2022/06/23 05:44:26;;;;;;;5.38;2.60;;;22.00;99.90;;;;;;4994441;28;20188;-55
2022/06/23 05:46:54;;;;;;;6.72;2.95;;;21.40;99.90;;;;;;4994724;28;20233;-55
2022/06/23 05:49:26;;;;;;;6.28;3.03;;;22.00;99.90;;;;;;4994598;28;20206;-55
2022/06/23 05:52:05;;;;;;;5.30;2.80;;;22.30;99.90;;;;;;4994656;28;20181;-55
2022/06/23 05:54:54;;;;;;;14.18;3.78;;;22.40;99.90;;;;;;4994225;28;20202;-55
2022/06/23 05:57:45;;;;;;;6.07;3.15;;;22.50;99.90;;;;;;4983983;28;20177;-55
2022/06/23 06:00:34;;;;;;;5.32;2.80;;;22.60;99.90;;;;;;4994142;28;20180;-55
2022/06/23 06:03:07;;;;;;;8.23;3.58;;;22.60;99.90;;;;;;4994060;28;20219;-54
2022/06/23 06:05:39;;;;;;;5.60;2.92;;;22.70;99.90;;;;;;4994031;28;20165;-55
2022/06/23 06:08:16;;;;;;;8.35;3.67;;;22.80;99.90;;;;;;4993854;28;20216;-55
2022/06/23 06:10:42;;;;;;;6.80;3.35;;;22.80;99.90;;;;;;4993974;28;20172;-55
2022/06/23 06:13:14;;;;;;;5.72;3.47;;;22.90;99.90;;;;;;4993874;28;20169;-55
2022/06/23 06:15:46;;;;;;;6.75;3.40;;;22.90;99.90;;;;;;4994059;28;20181;-54
2022/06/23 06:18:34;;;;;;;8.20;3.65;;;23.00;99.90;;;;;;4993875;28;20255;-54
2022/06/23 06:21:03;;;;;;;8.35;4.13;;;23.00;99.90;;;;;;4993651;28;20165;-54
2022/06/23 06:23:46;;;;;;;7.80;4.03;;;23.20;99.90;;;;;;4993509;28;20157;-54
2022/06/23 06:26:18;;;;;;;6.13;3.97;;;23.20;99.90;;;;;;4993594;28;20258;-54
2022/06/23 06:28:44;;;;;;;8.60;4.30;;;23.30;99.90;;;;;;4993002;28;20220;-54
2022/06/23 06:31:18;;;;;;;10.38;4.32;;;23.20;99.90;;;;;;4993579;28;20161;-54
2022/06/23 06:34:05;;;;;;;11.07;4.72;;;23.30;99.90;;;;;;4993325;28;20588;-54
2022/06/23 06:36:43;;;;;;;11.20;4.47;;;23.40;99.90;;;;;;4993401;28;20533;-54
2022/06/23 06:39:38;;;;;;;10.63;4.60;;;23.60;99.90;;;;;;4993651;28;20219;-54
2022/06/23 06:42:05;;;;;;;9.82;4.85;;;23.60;99.90;;;;;;4993315;28;20531;-55
2022/06/23 06:44:32;;;;;;;9.90;5.10;;;23.80;99.90;;;;;;4993347;28;20219;-55
2022/06/23 06:46:59;;;;;;;10.07;4.95;;;23.70;99.90;;;;;;4993418;28;20173;-55
2022/06/23 06:49:28;;;;;;;9.77;4.50;;;23.80;99.90;;;;;;4992990;28;20176;-54
2022/06/23 06:51:56;;;;;;;13.85;5.57;;;24.10;99.90;;;;;;4993147;28;20314;-54
2022/06/23 06:54:36;;;;;;;16.58;5.05;;;24.20;99.90;;;;;;4975980;28;20671;-54
2022/06/23 06:57:05;;;;;;;8.52;5.15;;;24.20;99.90;;;;;;4993069;28;20164;-54
2022/06/23 06:59:57;;;;;;;9.23;4.88;;;24.40;99.90;;;;;;4993279;28;20538;-54
2022/06/23 07:02:46;;;;;;;8.27;4.78;;;24.60;99.90;;;;;;4984136;28;20192;-54
2022/06/23 07:05:20;;;;;;;12.23;4.72;;;24.70;99.90;;;;;;4991783;28;20169;-53
2022/06/23 07:07:51;;;;;;;11.65;4.97;;;24.90;99.90;;;;;;4991774;28;20208;-53
2022/06/23 07:11:00;;;;;;;7.60;4.10;;;24.90;99.90;;;;;;4991189;28;20299;-54
2022/06/23 07:13:50;;;;;;;9.50;4.53;;;25.00;99.90;;;;;;4913780;29;20182;-54
2022/06/23 07:16:22;;;;;;;12.25;5.18;;;25.20;99.90;;;;;;4913695;29;20181;-54
2022/06/23 07:18:58;;;;;;;8.07;4.20;;;25.10;99.90;;;;;;4966526;28;20185;-54
2022/06/23 07:21:30;;;;;;;9.00;4.65;;;25.20;99.90;;;;;;4992941;28;20578;-54
2022/06/23 07:24:11;;;;;;;18.10;4.70;;;25.30;99.90;;;;;;4992692;28;20160;-54
2022/06/23 07:26:53;;;;;;;10.35;4.53;;;25.40;99.90;;;;;;4992846;28;20168;-54
2022/06/23 07:29:26;;;;;;;10.23;4.20;;;25.60;99.90;;;;;;4992866;28;20252;-54
2022/06/23 07:32:14;;;;;;;9.73;4.43;;;25.70;99.90;;;;;;4993095;28;20252;-55
2022/06/23 07:34:59;;;;;;;10.57;4.53;;;25.80;99.90;;;;;;4992783;28;20278;-54
2022/06/23 07:37:36;;;;;;;15.15;5.75;;;25.70;99.90;;;;;;4992514;28;20168;-54
2022/06/23 07:40:05;;;;;;;12.65;4.07;;;25.80;99.90;;;;;;4992256;28;20168;-54
2022/06/23 07:42:51;;;;;;;8.15;4.72;;;25.80;99.90;;;;;;4992412;28;20255;-54
2022/06/23 07:45:42;;;;;;;10.07;4.50;;;26.00;99.90;;;;;;4992466;28;20646;-54
2022/06/23 07:48:07;;;;;;;13.25;4.53;;;26.10;99.90;;;;;;4992405;28;20559;-54
2022/06/23 07:50:33;;;;;;;9.23;4.55;;;26.20;99.90;;;;;;4992277;28;20224;-55
2022/06/23 07:52:59;;;;;;;11.27;4.70;;;26.20;99.90;;;;;;4992450;28;20172;-54
2022/06/23 07:55:39;;;;;;;7.50;4.63;;;26.30;99.90;;;;;;4992505;28;20251;-54
2022/06/23 07:58:04;;;;;;;12.38;5.18;;;26.30;99.90;;;;;;4992284;28;20168;-54
2022/06/23 08:00:33;;;;;;;15.65;4.57;;;26.30;99.90;;;;;;4992324;28;20172;-54
2022/06/23 08:03:04;;;;;;;13.68;4.07;;;26.40;99.90;;;;;;4992037;28;20168;-55
2022/06/23 08:05:39;;;;;;;10.85;4.65;;;26.40;99.90;;;;;;4992351;28;20200;-55
2022/06/23 08:08:10;;;;;;;11.55;4.30;;;26.40;99.90;;;;;;4991975;28;20208;-55
2022/06/23 08:10:36;;;;;;;8.70;4.35;;;26.50;99.90;;;;;;4992034;28;20231;-55
2022/06/23 08:13:11;;;;;;;10.15;5.05;;;26.70;99.90;;;;;;4992070;28;20634;-55
2022/06/23 08:19:01;;;;;;;9.18;4.68;;;27.00;99.90;;;;;;4992251;28;20591;-54
2022/06/23 08:21:31;;;;;;;10.77;4.53;;;27.00;99.90;;;;;;4991900;28;20665;-54
2022/06/23 08:24:09;;;;;;;10.43;5.38;;;26.80;99.90;;;;;;4992057;28;20172;-54
2022/06/23 08:26:37;;;;;;;5.45;4.05;;;27.00;99.90;;;;;;4991857;28;20176;-54
2022/06/23 08:29:06;;;;;;;9.57;4.78;;;27.00;99.90;;;;;;4991892;28;20704;-54
2022/06/23 08:31:31;;;;;;;11.90;4.63;;;27.20;99.90;;;;;;4974414;28;20176;-54
2022/06/23 08:33:59;;;;;;;11.45;4.30;;;27.50;99.90;;;;;;4992385;28;20179;-54
2022/06/23 08:36:38;;;;;;;8.90;4.32;;;27.50;99.90;;;;;;4991741;28;20168;-54
2022/06/23 08:39:14;;;;;;;6.85;4.68;;;27.40;99.90;;;;;;4991997;28;20258;-54
2022/06/23 08:42:19;;;;;;;6.35;4.20;;;27.80;99.90;;;;;;4991935;28;20528;-54
2022/06/23 08:45:01;;;;;;;10.43;4.35;;;27.40;99.90;;;;;;4964619;28;20268;-55
2022/06/23 08:47:39;;;;;;;10.25;4.50;;;27.60;99.90;;;;;;4991491;28;20208;-55
2022/06/23 08:50:14;;;;;;;11.25;4.55;;;27.70;99.90;;;;;;4991952;28;20242;-55
2022/06/23 08:52:46;;;;;;;9.57;3.95;;;27.90;99.90;;;;;;4995414;28;20168;-55
2022/06/23 08:55:25;;;;;;;8.70;4.80;;;28.10;99.90;;;;;;4995741;28;20996;-55
2022/06/23 08:58:17;;;;;;;6.78;4.25;;;28.00;99.90;;;;;;4995665;28;20160;-55
2022/06/23 09:00:55;;;;;;;9.35;4.30;;;28.10;99.90;;;;;;4984786;28;20184;-55
2022/06/23 09:03:40;;;;;;;10.35;3.80;;;28.00;99.90;;;;;;4995551;28;20196;-55
2022/06/23 09:06:15;;;;;;;12.00;4.32;;;28.40;99.90;;;;;;4995039;28;20168;-55
2022/06/23 09:08:54;;;;;;;6.50;3.97;;;28.50;99.90;;;;;;4995047;28;20290;-55
2022/06/23 09:11:44;;;;;;;12.25;4.88;;;28.40;99.90;;;;;;4995228;28;20195;-55
2022/06/23 09:14:13;;;;;;;13.07;4.18;;;28.40;99.90;;;;;;4995167;28;20164;-55
2022/06/23 09:17:08;;;;;;;10.55;4.03;;;28.50;99.90;;;;;;4994645;28;20167;-55
2022/06/23 09:20:12;;;;;;;8.68;3.85;;;28.60;99.90;;;;;;4994773;28;20168;-55
2022/06/23 09:22:55;;;;;;;10.50;4.43;;;28.60;99.90;;;;;;4994551;28;20182;-55
2022/06/23 09:25:42;;;;;;;7.47;3.92;;;28.70;99.90;;;;;;4995241;28;20175;-55
2022/06/23 09:28:16;;;;;;;8.82;3.78;;;28.70;99.90;;;;;;4994344;28;20661;-55
2022/06/23 09:31:06;;;;;;;5.05;4.13;;;28.90;99.90;;;;;;4994520;28;20168;-55
2022/06/23 09:33:40;;;;;;;5.82;3.55;;;29.00;99.90;;;;;;4994494;28;20175;-55
2022/06/23 09:36:27;;;;;;;7.30;3.78;;;29.10;99.90;;;;;;4976903;28;20167;-55
2022/06/23 09:39:34;;;;;;;5.25;3.58;;;29.30;99.90;;;;;;4994439;28;20168;-55
2022/06/23 09:42:33;;;;;;;5.32;3.20;;;29.40;99.90;;;;;;4994296;28;20183;-55
2022/06/23 09:45:19;;;;;;;9.10;3.70;;;29.10;99.90;;;;;;4994706;28;20244;-55
2022/06/23 09:48:02;;;;;;;6.93;3.67;;;29.30;99.90;;;;;;4993872;28;20203;-55
2022/06/23 09:50:48;;;;;;;11.48;3.65;;;29.30;99.90;;;;;;4994165;28;20609;-55
2022/06/23 09:53:35;;;;;;;11.52;3.28;;;29.40;99.90;;;;;;4994058;28;20645;-55
2022/06/23 09:56:34;;;;;;;6.75;3.58;;;29.40;99.90;;;;;;4994192;28;20160;-55
2022/06/23 09:59:26;;;;;;;13.18;4.10;;;29.40;99.90;;;;;;4994190;28;20172;-55
2022/06/23 10:02:02;;;;;;;16.70;4.13;;;29.50;99.90;;;;;;4992682;28;20230;-55
2022/06/23 10:04:43;;;;;;;9.00;3.90;;;29.90;99.90;;;;;;4993980;28;20171;-54
2022/06/23 10:07:27;;;;;;;8.32;3.60;;;30.00;99.90;;;;;;4993546;28;20164;-55
2022/06/23 10:10:07;;;;;;;5.47;3.72;;;30.10;99.90;;;;;;4993974;28;20182;-54
2022/06/23 10:12:36;;;;;;;7.60;3.25;;;30.10;99.90;;;;;;4993851;28;20544;-55
2022/06/23 10:15:25;;;;;;;5.05;3.33;;;30.30;99.90;;;;;;4993918;28;20219;-55
2022/06/23 10:18:08;;;;;;;6.38;3.03;;;30.30;99.90;;;;;;4994486;28;20183;-55
2022/06/23 10:20:49;;;;;;;10.07;3.42;;;30.50;99.90;;;;;;4993759;28;20164;-55
2022/06/23 10:23:30;;;;;;;17.52;4.35;;;30.50;99.90;;;;;;4993745;28;20165;-55
2022/06/23 10:26:17;;;;;;;5.53;3.47;;;30.30;99.90;;;;;;4976197;28;20258;-55
2022/06/23 10:28:57;;;;;;;7.93;3.53;;;30.40;99.90;;;;;;4993519;28;20291;-54
2022/06/23 10:31:34;;;;;;;7.28;3.90;;;30.50;99.90;;;;;;4993598;28;20183;-54
2022/06/23 10:34:15;;;;;;;4.97;3.35;;;30.30;99.90;;;;;;4993506;28;20171;-55
2022/06/23 10:36:50;;;;;;;8.93;3.17;;;30.40;99.90;;;;;;4993440;28;20179;-54
2022/06/23 10:39:47;;;;;;;7.45;3.28;;;30.50;99.90;;;;;;4993572;28;20175;-54
2022/06/23 10:42:22;;;;;;;7.25;3.30;;;30.80;99.90;;;;;;4992566;28;20267;-54
2022/06/23 10:45:28;;;;;;;8.30;3.63;;;30.60;99.90;;;;;;4993781;28;20167;-54
2022/06/23 10:48:38;;;;;;;8.93;3.78;;;30.50;99.90;;;;;;4954828;28;20222;-55
2022/06/23 10:51:36;;;;;;;8.68;3.67;;;31.00;99.90;;;;;;4914094;29;20302;-55
2022/06/23 10:54:09;;;;;;;6.85;3.58;;;30.90;99.90;;;;;;4975751;28;20165;-55
2022/06/23 10:56:45;;;;;;;6.78;4.07;;;31.00;99.90;;;;;;4993244;28;20544;-55
2022/06/23 10:59:18;;;;;;;12.65;3.80;;;30.90;99.90;;;;;;4993014;28;20194;-55
2022/06/23 11:02:15;;;;;;;6.80;3.67;;;31.30;99.90;;;;;;4993091;28;20168;-55
2022/06/23 11:05:22;;;;;;;7.10;3.78;;;31.10;99.90;;;;;;4993151;28;21270;-54
2022/06/23 11:07:54;;;;;;;10.27;3.80;;;31.00;99.90;;;;;;4975626;28;20250;-55
2022/06/23 11:10:31;;;;;;;10.75;3.80;;;31.10;99.90;;;;;;4993415;28;20172;-55
2022/06/23 11:13:51;;;;;;;11.68;3.50;;;31.20;99.90;;;;;;4992875;28;20215;-54
2022/06/23 11:16:47;;;;;;;11.77;4.10;;;31.40;99.90;;;;;;4914185;29;20759;-54
2022/06/23 11:19:42;;;;;;;11.18;3.83;;;31.50;99.90;;;;;;4913623;29;20170;-55
2022/06/23 11:22:36;;;;;;;6.88;3.60;;;31.40;99.90;;;;;;4982825;28;20191;-55
2022/06/23 11:25:08;;;;;;;8.82;3.83;;;31.60;99.90;;;;;;4992500;28;20168;-54
2022/06/23 11:28:09;;;;;;;6.88;3.90;;;31.70;99.90;;;;;;4992676;28;20227;-55
2022/06/23 11:31:10;;;;;;;5.28;3.45;;;31.70;99.90;;;;;;4992397;28;20168;-55
2022/06/23 11:33:35;;;;;;;7.65;3.65;;;32.10;99.90;;;;;;4981784;28;20184;-55
2022/06/23 11:36:35;;;;;;;7.72;3.72;;;31.90;99.90;;;;;;4992133;28;20218;-55
2022/06/23 11:39:29;;;;;;;7.88;3.83;;;32.00;99.90;;;;;;4992230;28;20170;-55
2022/06/23 11:42:06;;;;;;;13.40;5.07;;;32.10;99.90;;;;;;4992604;28;20168;-54
2022/06/23 11:44:53;;;;;;;4.25;3.80;;;32.00;99.90;;;;;;4992311;28;20168;-55
2022/06/23 11:47:30;;;;;;;9.10;3.72;;;31.90;99.90;;;;;;4992757;28;20195;-54
2022/06/23 11:50:18;;;;;;;8.40;4.38;;;32.20;99.90;;;;;;4991987;28;20704;-55
2022/06/23 11:53:18;;;;;;;9.15;4.03;;;32.30;99.90;;;;;;4992259;28;20638;-55
2022/06/23 11:55:55;;;;;;;6.35;3.80;;;32.50;99.90;;;;;;4950683;28;20232;-55
2022/06/23 11:58:30;;;;;;;10.50;4.97;;;32.30;99.90;;;;;;4992266;28;20520;-55
2022/06/23 12:01:23;;;;;;;9.00;4.47;;;32.30;99.90;;;;;;4992262;28;20183;-55
2022/06/23 12:04:02;;;;;;;7.80;3.95;;;31.70;99.90;;;;;;4992249;28;20638;-55
2022/06/23 12:06:56;;;;;;;13.88;5.00;;;31.80;99.90;;;;;;4992548;28;20251;-55
2022/06/23 12:09:34;;;;;;;6.38;3.75;;;32.30;99.90;;;;;;4991872;28;20685;-55
2022/06/23 12:12:02;;;;;;;8.85;3.75;;;32.30;99.90;;;;;;4991921;28;20565;-55
2022/06/23 12:14:28;;;;;;;9.00;3.83;;;32.00;99.90;;;;;;4992041;28;20168;-55
2022/06/23 12:17:14;;;;;;;21.25;4.90;;;32.20;99.90;;;;;;4992149;28;20172;-55
2022/06/23 12:19:55;;;;;;;8.82;3.83;;;32.20;99.90;;;;;;4991929;28;20164;-55
2022/06/23 12:22:27;;;;;;;9.52;4.32;;;32.50;99.90;;;;;;4992190;28;20633;-55
2022/06/23 12:25:07;;;;;;;8.68;4.82;;;32.10;99.90;;;;;;4991766;28;20172;-55
2022/06/23 12:27:42;;;;;;;7.38;4.03;;;32.40;99.90;;;;;;4995680;28;20211;-55
2022/06/23 12:30:12;;;;;;;10.23;5.15;;;32.40;99.90;;;;;;4995439;28;20214;-55
2022/06/23 12:32:54;;;;;;;7.55;4.05;;;32.70;99.90;;;;;;4995688;28;20207;-55
2022/06/23 12:35:20;;;;;;;8.98;4.25;;;32.30;99.90;;;;;;4995922;28;20176;-55
2022/06/23 12:38:11;;;;;;;9.98;4.10;;;32.30;99.90;;;;;;4996151;28;20210;-55
2022/06/23 12:40:46;;;;;;;9.82;3.92;;;32.00;99.90;;;;;;4984915;28;20180;-55
2022/06/23 12:43:17;;;;;;;7.82;4.00;;;32.10;99.90;;;;;;4995543;28;20233;-55
2022/06/23 12:46:01;;;;;;;7.22;4.20;;;32.50;99.40;;;;;;4995079;28;20176;-55
2022/06/23 12:48:51;;;;;;;9.43;4.40;;;32.60;99.00;;;;;;4995332;28;20303;-55
2022/06/23 12:51:38;;;;;;;9.50;4.03;;;32.40;99.90;;;;;;4995411;28;20220;-55
2022/06/23 12:54:29;;;;;;;11.32;4.03;;;32.40;99.70;;;;;;4995289;28;20171;-55
2022/06/23 12:57:04;;;;;;;6.20;3.90;;;32.50;99.90;;;;;;4995254;28;20230;-55
2022/06/23 12:59:37;;;;;;;12.80;4.18;;;32.10;99.90;;;;;;4995261;28;20168;-55
2022/06/23 13:02:24;;;;;;;11.77;4.70;;;32.40;99.90;;;;;;4995091;28;20176;-55
2022/06/23 13:04:56;;;;;;;12.02;4.07;;;32.50;99.90;;;;;;4995169;28;20168;-55
2022/06/23 13:07:31;;;;;;;10.68;4.28;;;32.40;99.90;;;;;;4995188;28;20244;-55
2022/06/23 13:10:11;;;;;;;8.60;3.83;;;31.80;99.90;;;;;;4995202;28;20697;-55
2022/06/23 13:13:07;;;;;;;10.80;4.22;;;33.00;98.80;;;;;;4994720;28;20629;-55
2022/06/23 13:15:40;;;;;;;6.95;4.35;;;32.50;98.50;;;;;;4994767;28;20564;-55
2022/06/23 13:18:36;;;;;;;7.63;4.05;;;32.30;99.50;;;;;;4994820;28;20164;-55
2022/06/23 13:21:16;;;;;;;10.60;4.45;;;32.40;99.60;;;;;;4994706;28;20172;-55
2022/06/23 13:23:57;;;;;;;6.10;3.90;;;32.90;98.20;;;;;;4995175;28;20251;-55
2022/06/23 13:27:03;;;;;;;7.90;4.07;;;32.80;98.30;;;;;;4994672;28;20717;-55
2022/06/23 13:29:38;;;;;;;10.07;4.10;;;32.50;99.90;;;;;;4993512;28;20713;-55
2022/06/23 13:32:39;;;;;;;10.23;4.07;;;32.80;99.50;;;;;;4977240;28;20172;-55
2022/06/23 13:35:16;;;;;;;8.35;3.85;;;33.00;98.70;;;;;;4952558;28;20216;-55
2022/06/23 13:37:59;;;;;;;32.58;5.90;;;32.20;98.60;;;;;;4994078;28;20526;-55
2022/06/23 13:40:35;;;;;;;11.65;4.93;;;33.00;97.90;;;;;;4994590;28;20168;-55
2022/06/23 13:43:01;;;;;;;8.65;4.20;;;32.80;97.20;;;;;;4994463;28;20206;-55
2022/06/23 13:45:50;;;;;;;12.20;3.78;;;32.40;99.10;;;;;;4994293;28;20165;-55
2022/06/23 13:48:41;;;;;;;6.82;3.80;;;32.40;99.90;;;;;;4994654;28;20240;-55
2022/06/23 13:51:45;;;;;;;7.88;4.35;;;32.70;98.90;;;;;;4976718;28;20274;-55
2022/06/23 13:54:32;;;;;;;10.45;3.88;;;33.10;99.00;;;;;;4951664;28;20255;-55
2022/06/23 13:57:19;;;;;;;8.18;3.85;;;33.20;98.40;;;;;;4994422;28;20166;-55
2022/06/23 14:00:24;;;;;;;12.93;4.18;;;33.10;96.00;;;;;;4994163;28;20203;-55